createdAt,value
2023-03-16T00:00:19.842Z,2.58
2023-03-16T00:02:47.170Z,2.40
2023-03-16T00:05:14.691Z,2.33
2023-03-16T00:07:42.467Z,2.40
2023-03-16T00:10:13.814Z,2.53
2023-03-16T00:12:43.786Z,2.30
2023-03-16T00:15:12.651Z,2.28
2023-03-16T00:17:39.747Z,2.83
2023-03-16T00:20:07.603Z,2.42
2023-03-16T00:22:34.784Z,2.70
2023-03-16T00:25:02.010Z,2.28
2023-03-16T00:27:29.521Z,2.30
2023-03-16T00:29:57.127Z,2.40
2023-03-16T00:32:34.058Z,2.30
2023-03-16T00:35:02.962Z,2.50
2023-03-16T00:37:32.835Z,2.80
2023-03-16T00:40:00.806Z,2.50
2023-03-16T00:42:31.642Z,2.60
2023-03-16T00:45:01.734Z,2.38
2023-03-16T00:47:32.805Z,2.50
2023-03-16T00:50:01.918Z,2.60
2023-03-16T00:52:30.151Z,2.72
2023-03-16T00:54:58.334Z,2.55
2023-03-16T00:57:27.710Z,2.70
2023-03-16T00:59:55.909Z,2.70
2023-03-16T01:02:24.601Z,2.90
2023-03-16T01:04:54.644Z,2.60
2023-03-16T01:07:22.297Z,2.50
2023-03-16T01:09:49.319Z,2.33
2023-03-16T01:12:19.249Z,2.60
2023-03-16T01:14:47.592Z,2.80
2023-03-16T01:17:17.263Z,2.22
2023-03-16T01:19:45.946Z,2.60
2023-03-16T01:22:14.150Z,2.50
2023-03-16T01:24:45.235Z,2.70
2023-03-16T01:27:13.091Z,2.55
2023-03-16T01:29:43.631Z,2.50
2023-03-16T01:32:12.170Z,2.60
2023-03-16T01:34:39.354Z,2.70
2023-03-16T01:37:07.143Z,2.55
2023-03-16T01:39:51.318Z,2.60
2023-03-16T01:42:18.380Z,2.50
2023-03-16T01:44:54.378Z,2.80
2023-03-16T01:47:23.309Z,3.30
2023-03-16T01:49:56.692Z,2.67
2023-03-16T01:52:33.698Z,2.88
2023-03-16T01:55:13.674Z,3.10
2023-03-16T01:57:46.794Z,3.03
2023-03-16T02:00:19.762Z,2.63
2023-03-16T02:03:09.825Z,2.80
2023-03-16T02:06:15.392Z,2.78
2023-03-16T02:08:50.106Z,2.83
2023-03-16T02:11:22.469Z,2.90
2023-03-16T02:14:10.926Z,3.13
2023-03-16T02:16:40.819Z,2.78
2023-03-16T02:19:26.463Z,2.72
2023-03-16T02:22:07.698Z,2.60
2023-03-16T02:24:37.511Z,3.08
2023-03-16T02:27:12.379Z,2.95
2023-03-16T02:30:07.781Z,2.97
2023-03-16T02:32:45.979Z,3.03
2023-03-16T02:35:14.329Z,3.22
2023-03-16T02:37:42.192Z,3.13
2023-03-16T02:40:29.605Z,2.67
2023-03-16T02:43:22.840Z,3.00
2023-03-16T02:46:05.257Z,2.72
2023-03-16T02:48:51.154Z,2.67
2023-03-16T02:51:20.733Z,2.88
2023-03-16T02:53:47.738Z,3.30
2023-03-16T02:56:15.088Z,2.90
2023-03-16T02:58:42.069Z,2.75
2023-03-16T03:01:14.181Z,2.60
2023-03-16T03:03:41.204Z,2.85
2023-03-16T03:06:08.275Z,2.90
2023-03-16T03:08:37.552Z,2.78
2023-03-16T03:11:04.891Z,2.90
2023-03-16T03:13:31.874Z,2.80
2023-03-16T03:15:59.468Z,2.88
2023-03-16T03:18:28.215Z,2.70
2023-03-16T03:20:55.465Z,2.50
2023-03-16T03:23:22.562Z,2.60
2023-03-16T03:25:49.558Z,2.72
2023-03-16T03:28:17.897Z,2.70
2023-03-16T03:30:45.644Z,2.60
2023-03-16T03:33:13.014Z,2.70
2023-03-16T03:35:42.085Z,3.10
2023-03-16T03:38:09.416Z,2.70
2023-03-16T03:40:36.474Z,2.60
2023-03-16T03:43:06.337Z,2.88
2023-03-16T03:45:37.764Z,3.30
2023-03-16T03:48:05.388Z,2.78
2023-03-16T03:50:33.959Z,2.80
2023-03-16T03:53:29.974Z,2.80
2023-03-16T03:56:23.871Z,2.70
2023-03-16T03:58:51.108Z,2.85
2023-03-16T04:01:32.970Z,3.00
2023-03-16T04:04:00.094Z,3.00
2023-03-16T04:06:27.186Z,2.95
2023-03-16T04:08:55.482Z,3.00
2023-03-16T04:11:26.220Z,2.80
2023-03-16T04:13:54.547Z,2.90
2023-03-16T04:16:22.178Z,3.28
2023-03-16T04:18:56.618Z,2.70
2023-03-16T04:21:24.677Z,2.65
2023-03-16T04:23:54.907Z,2.60
2023-03-16T04:26:29.568Z,2.70
2023-03-16T04:28:58.218Z,2.78
2023-03-16T04:31:25.991Z,2.70
2023-03-16T04:33:55.932Z,2.50
2023-03-16T04:36:24.206Z,2.65
2023-03-16T04:38:51.987Z,2.50
2023-03-16T04:41:19.816Z,2.78
2023-03-16T04:44:00.857Z,2.70
2023-03-16T04:46:29.504Z,3.00
2023-03-16T04:48:58.724Z,2.70
2023-03-16T04:51:28.678Z,2.70
2023-03-16T04:54:18.451Z,2.63
2023-03-16T04:56:45.570Z,2.60
2023-03-16T04:59:45.342Z,2.67
2023-03-16T05:02:32.586Z,2.70
2023-03-16T05:05:01.528Z,2.50
2023-03-16T05:07:29.895Z,2.47
2023-03-16T05:09:57.918Z,2.97
2023-03-16T05:12:25.027Z,2.60
2023-03-16T05:14:56.482Z,2.53
2023-03-16T05:17:32.503Z,2.65
2023-03-16T05:19:59.962Z,2.75
2023-03-16T05:22:27.771Z,2.45
2023-03-16T05:25:20.305Z,2.40
2023-03-16T05:27:54.265Z,2.45
2023-03-16T05:30:29.456Z,6.18
2023-03-16T05:32:58.852Z,2.50
2023-03-16T05:35:28.150Z,2.58
2023-03-16T05:37:59.807Z,2.40
2023-03-16T05:40:29.209Z,2.60
2023-03-16T05:43:06.425Z,2.60
2023-03-16T05:45:38.525Z,2.45
2023-03-16T05:48:11.338Z,2.70
2023-03-16T05:50:44.264Z,2.95
2023-03-16T05:53:13.464Z,3.28
2023-03-16T05:55:41.519Z,2.67
2023-03-16T05:58:11.854Z,2.38
2023-03-16T06:00:41.202Z,2.45
2023-03-16T06:03:19.997Z,2.53
2023-03-16T06:05:47.524Z,2.35
2023-03-16T06:08:16.251Z,2.30
2023-03-16T06:10:48.380Z,2.55
2023-03-16T06:13:17.762Z,2.17
2023-03-16T06:15:44.945Z,2.40
2023-03-16T06:18:13.680Z,2.20
2023-03-16T06:20:40.858Z,2.88
2023-03-16T06:23:07.937Z,2.45
2023-03-16T06:25:34.968Z,2.25
2023-03-16T06:28:04.210Z,2.85
2023-03-16T06:30:31.287Z,3.15
2023-03-16T06:33:00.200Z,2.50
2023-03-16T06:35:27.284Z,2.78
2023-03-16T06:38:07.496Z,2.75
2023-03-16T06:40:55.198Z,2.53
2023-03-16T06:43:23.590Z,2.80
2023-03-16T06:45:51.865Z,3.63
2023-03-16T06:48:19.631Z,3.28
2023-03-16T06:50:47.535Z,4.18
2023-03-16T06:53:19.965Z,4.85
2023-03-16T06:55:47.095Z,5.38
2023-03-16T06:58:14.520Z,5.07
2023-03-16T07:00:42.228Z,5.15
2023-03-16T07:03:09.252Z,5.60
2023-03-16T07:05:38.604Z,6.03
2023-03-16T07:08:06.158Z,6.35
2023-03-16T07:10:33.198Z,6.70
2023-03-16T07:13:00.265Z,7.05
2023-03-16T07:15:27.282Z,6.78
2023-03-16T07:17:56.754Z,7.10
2023-03-16T07:20:27.048Z,6.70
2023-03-16T07:22:54.238Z,6.65
2023-03-16T07:25:21.429Z,6.40
2023-03-16T07:27:53.421Z,5.40
2023-03-16T07:30:26.536Z,5.15
2023-03-16T07:32:54.208Z,4.35
2023-03-16T07:35:24.397Z,3.92
2023-03-16T07:37:51.702Z,3.75
2023-03-16T07:40:20.019Z,4.57
2023-03-16T07:42:47.078Z,4.00
2023-03-16T07:45:17.969Z,3.97
2023-03-16T07:47:45.907Z,6.60
2023-03-16T07:50:24.318Z,4.47
2023-03-16T07:52:52.531Z,5.80
2023-03-16T07:55:20.163Z,3.90
2023-03-16T07:57:48.279Z,4.55
2023-03-16T08:00:23.846Z,6.00
2023-03-16T08:02:51.954Z,5.15
2023-03-16T08:05:19.017Z,4.10
2023-03-16T08:07:51.549Z,6.95
2023-03-16T08:10:24.044Z,6.43
2023-03-16T08:13:14.438Z,6.45
2023-03-16T08:16:02.087Z,4.07
2023-03-16T08:18:35.426Z,4.28
2023-03-16T08:21:03.466Z,5.47
2023-03-16T08:23:33.615Z,8.68
2023-03-16T08:26:01.211Z,5.10
2023-03-16T08:28:28.793Z,4.53
2023-03-16T08:30:58.553Z,4.43
2023-03-16T08:33:48.289Z,3.72
2023-03-16T08:36:19.014Z,6.43
2023-03-16T08:39:06.135Z,3.60
2023-03-16T08:41:40.390Z,4.10
2023-03-16T08:44:12.964Z,4.40
2023-03-16T08:46:40.794Z,4.57
2023-03-16T08:49:08.774Z,4.22
2023-03-16T08:51:37.022Z,3.60
2023-03-16T08:54:04.262Z,4.13
2023-03-16T08:56:32.437Z,3.80
2023-03-16T08:58:59.788Z,4.85
2023-03-16T09:01:27.576Z,4.32
2023-03-16T09:03:55.078Z,4.47
2023-03-16T09:06:22.525Z,5.20
2023-03-16T09:08:49.703Z,4.38
2023-03-16T09:11:20.020Z,4.60
2023-03-16T09:13:47.375Z,4.60
2023-03-16T09:16:16.283Z,5.50
2023-03-16T09:18:43.600Z,5.15
2023-03-16T09:21:15.025Z,4.50
2023-03-16T09:23:45.424Z,4.78
2023-03-16T09:26:15.208Z,3.97
2023-03-16T09:28:42.910Z,4.05
2023-03-16T09:31:18.280Z,4.38
2023-03-16T09:33:46.369Z,4.05
2023-03-16T09:36:14.581Z,3.42
2023-03-16T09:38:43.866Z,4.00
2023-03-16T09:41:48.681Z,3.28
2023-03-16T09:44:51.551Z,3.20
2023-03-16T09:47:28.548Z,3.40
2023-03-16T09:50:00.325Z,3.22
2023-03-16T09:52:50.540Z,3.65
2023-03-16T09:55:31.285Z,3.67
2023-03-16T09:58:01.163Z,3.80
2023-03-16T10:00:43.477Z,4.28
2023-03-16T10:03:26.595Z,3.85
2023-03-16T10:06:05.159Z,3.53
2023-03-16T10:08:45.548Z,3.30
2023-03-16T10:11:33.031Z,3.00
2023-03-16T10:14:25.538Z,3.30
2023-03-16T10:17:03.746Z,3.17
2023-03-16T10:19:45.958Z,2.75
2023-03-16T10:22:22.144Z,3.40
2023-03-16T10:25:22.652Z,3.03
2023-03-16T10:27:50.899Z,2.97
2023-03-16T10:30:26.001Z,2.97
2023-03-16T10:32:53.820Z,3.13
2023-03-16T10:35:55.520Z,2.75
2023-03-16T10:38:46.630Z,2.97
2023-03-16T10:41:29.876Z,2.22
2023-03-16T10:44:21.549Z,2.30
2023-03-16T10:46:58.953Z,2.30
2023-03-16T10:49:42.304Z,1.80
2023-03-16T10:52:23.933Z,2.20
2023-03-16T10:54:56.935Z,2.05
2023-03-16T10:57:33.964Z,2.08
2023-03-16T11:00:21.000Z,1.70
2023-03-16T11:02:51.061Z,1.67
2023-03-16T11:05:17.992Z,2.25
2023-03-16T11:07:51.037Z,1.85
2023-03-16T11:10:56.248Z,1.85
2023-03-16T11:16:41.570Z,2.90
2023-03-16T11:19:31.188Z,1.45
2023-03-16T11:22:15.110Z,1.70
2023-03-16T11:25:03.112Z,1.80
2023-03-16T11:27:42.008Z,1.75
2023-03-16T11:30:33.881Z,1.67
2023-03-16T11:33:01.812Z,1.58
2023-03-16T11:36:09.048Z,1.70
2023-03-16T11:38:59.363Z,1.50
2023-03-16T11:41:58.956Z,1.70
2023-03-16T11:44:55.749Z,1.90
2023-03-16T11:48:03.497Z,1.67
2023-03-16T11:51:09.511Z,1.90
2023-03-16T11:54:16.631Z,1.60
2023-03-16T11:56:52.772Z,1.60
2023-03-16T12:00:01.389Z,1.63
2023-03-16T12:03:31.315Z,1.90
2023-03-16T12:06:44.933Z,1.60
2023-03-16T12:09:51.015Z,1.70
2023-03-16T12:12:37.566Z,1.35
2023-03-16T12:15:32.589Z,1.67
2023-03-16T12:20:50.344Z,1.63
2023-03-16T12:23:29.030Z,2.08
2023-03-16T12:26:00.123Z,1.63
2023-03-16T12:28:33.330Z,1.60
2023-03-16T12:31:17.994Z,1.67
2023-03-16T12:33:59.420Z,1.48
2023-03-16T12:36:46.363Z,2.17
2023-03-16T12:39:53.511Z,2.30
2023-03-16T12:42:35.779Z,1.40
2023-03-16T12:45:14.240Z,1.60
2023-03-16T12:47:59.622Z,1.33
2023-03-16T12:50:27.275Z,2.10
2023-03-16T12:52:54.627Z,1.80
2023-03-16T12:55:34.594Z,1.45
2023-03-16T12:58:07.567Z,1.60
2023-03-16T13:00:41.337Z,1.83
2023-03-16T13:03:23.176Z,1.60
2023-03-16T13:05:55.804Z,1.77
2023-03-16T13:08:23.515Z,1.77
2023-03-16T13:11:10.077Z,2.30
2023-03-16T13:14:01.785Z,1.50
2023-03-16T13:16:37.531Z,1.45
2023-03-16T13:19:38.448Z,1.52
2023-03-16T13:22:32.364Z,1.60
2023-03-16T13:24:59.688Z,1.67
2023-03-16T13:27:34.357Z,1.48
2023-03-16T13:30:24.443Z,1.40
2023-03-16T13:33:22.070Z,1.70
2023-03-16T13:35:52.674Z,1.75
2023-03-16T13:38:25.842Z,1.52
2023-03-16T13:40:57.580Z,1.50
2023-03-16T13:43:28.946Z,1.35
2023-03-16T13:45:56.543Z,1.40
2023-03-16T13:48:24.117Z,1.25
2023-03-16T13:50:57.940Z,1.42
2023-03-16T13:53:32.896Z,1.27
2023-03-16T13:56:04.370Z,1.48
2023-03-16T13:58:40.151Z,1.67
2023-03-16T14:01:33.311Z,0.95
2023-03-16T14:04:11.918Z,1.33
2023-03-16T14:06:41.290Z,1.30
2023-03-16T14:09:22.276Z,1.48
2023-03-16T14:11:49.330Z,1.50
2023-03-16T14:14:25.343Z,1.00
2023-03-16T14:16:54.744Z,1.20
2023-03-16T14:19:32.308Z,1.15
2023-03-16T14:22:06.664Z,1.08
2023-03-16T14:24:39.265Z,1.20
2023-03-16T14:27:16.191Z,1.35
2023-03-16T14:29:45.225Z,1.30
2023-03-16T14:32:30.191Z,6.10
2023-03-16T14:35:22.017Z,0.95
2023-03-16T14:37:52.048Z,0.95
2023-03-16T14:40:31.799Z,2.00
2023-03-16T14:43:04.668Z,1.20
2023-03-16T14:45:34.879Z,1.45
2023-03-16T14:48:17.128Z,1.02
2023-03-16T14:50:44.799Z,1.10
2023-03-16T14:53:11.912Z,1.02
2023-03-16T14:55:39.507Z,0.93
2023-03-16T14:58:06.799Z,1.05
2023-03-16T15:00:42.754Z,1.00
2023-03-16T15:03:17.706Z,0.60
2023-03-16T15:05:50.342Z,1.00
2023-03-16T15:08:31.403Z,0.90
2023-03-16T15:11:04.007Z,0.70
2023-03-16T15:13:47.145Z,1.20
2023-03-16T15:16:15.002Z,0.63
2023-03-16T15:18:42.736Z,0.60
2023-03-16T15:21:15.436Z,0.90
2023-03-16T15:23:44.624Z,0.82
2023-03-16T15:26:15.474Z,0.52
2023-03-16T15:28:42.933Z,0.60
2023-03-16T15:31:17.274Z,1.00
2023-03-16T15:33:45.523Z,0.40
2023-03-16T15:36:22.148Z,0.93
2023-03-16T15:38:53.505Z,1.20
2023-03-16T15:41:21.365Z,1.08
2023-03-16T15:43:48.447Z,0.70
2023-03-16T15:46:16.585Z,1.10
2023-03-16T15:48:44.383Z,0.70
2023-03-16T15:51:22.498Z,0.70
2023-03-16T15:54:06.008Z,0.73
2023-03-16T15:56:53.131Z,1.00
2023-03-16T15:59:23.359Z,0.90
2023-03-16T16:01:51.796Z,0.90
2023-03-16T16:04:23.605Z,1.10
2023-03-16T16:06:55.638Z,1.27
2023-03-16T16:09:23.754Z,0.70
2023-03-16T16:11:51.429Z,0.57
2023-03-16T16:14:26.543Z,4.50
2023-03-16T16:16:54.332Z,0.98
2023-03-16T16:19:21.762Z,0.70
2023-03-16T16:21:48.825Z,0.70
2023-03-16T16:24:18.201Z,0.90
2023-03-16T16:26:53.766Z,0.77
2023-03-16T16:29:32.062Z,0.70
2023-03-16T16:31:59.959Z,0.70
2023-03-16T16:34:28.035Z,1.20
2023-03-16T16:36:57.250Z,0.90
2023-03-16T16:39:25.309Z,0.90
2023-03-16T16:41:56.312Z,0.80
2023-03-16T16:44:29.028Z,1.13
2023-03-16T16:46:57.495Z,1.23
2023-03-16T16:49:30.487Z,0.80
2023-03-16T16:51:58.964Z,0.60
2023-03-16T16:54:31.179Z,0.77
2023-03-16T16:57:00.634Z,2.63
2023-03-16T16:59:36.921Z,1.02
2023-03-16T17:02:30.856Z,1.20
2023-03-16T17:04:58.338Z,0.93
2023-03-16T17:07:25.809Z,0.90
2023-03-16T17:09:52.762Z,0.90
2023-03-16T17:12:23.223Z,0.80
2023-03-16T17:14:51.119Z,1.10
2023-03-16T17:17:19.027Z,1.10
2023-03-16T17:19:46.965Z,0.80
2023-03-16T17:22:24.751Z,2.00
2023-03-16T17:24:54.014Z,1.00
2023-03-16T17:27:29.424Z,0.90
2023-03-16T17:29:57.697Z,0.90
2023-03-16T17:32:25.731Z,1.75
2023-03-16T17:34:52.869Z,1.20
2023-03-16T17:37:23.228Z,1.33
2023-03-16T17:39:51.191Z,1.05
2023-03-16T17:42:20.392Z,1.00
2023-03-16T17:44:51.202Z,2.30
2023-03-16T17:47:25.498Z,0.90
2023-03-16T17:49:53.479Z,1.10
2023-03-16T17:52:26.890Z,0.98
2023-03-16T17:54:54.746Z,0.95
2023-03-16T17:57:33.656Z,1.00
2023-03-16T18:00:08.879Z,1.10
2023-03-16T18:02:54.069Z,0.90
2023-03-16T18:05:39.909Z,1.20
2023-03-16T18:08:26.151Z,1.17
2023-03-16T18:11:02.195Z,1.27
2023-03-16T18:13:36.095Z,1.40
2023-03-16T18:16:05.805Z,1.20
2023-03-16T18:18:38.280Z,1.17
2023-03-16T18:21:05.654Z,1.23
2023-03-16T18:23:35.795Z,1.30
2023-03-16T18:26:07.022Z,1.38
2023-03-16T18:28:35.015Z,1.20
2023-03-16T18:31:05.041Z,1.10
2023-03-16T18:33:39.219Z,1.45
2023-03-16T18:36:17.711Z,1.30
2023-03-16T18:38:50.483Z,1.75
2023-03-16T18:41:23.698Z,2.17
2023-03-16T18:43:54.979Z,2.63
2023-03-16T18:46:34.299Z,2.40
2023-03-16T18:49:29.442Z,1.60
2023-03-16T18:51:56.637Z,2.45
2023-03-16T18:54:30.632Z,2.75
2023-03-16T18:57:01.071Z,2.53
2023-03-16T18:59:28.177Z,2.80
2023-03-16T19:01:55.609Z,1.80
2023-03-16T19:04:30.720Z,3.33
2023-03-16T19:06:58.269Z,3.25
2023-03-16T19:09:31.923Z,4.78
2023-03-16T19:11:59.499Z,3.22
2023-03-16T19:14:32.400Z,4.18
2023-03-16T19:16:59.419Z,2.50
2023-03-16T19:19:27.388Z,1.90
2023-03-16T19:22:09.747Z,2.63
2023-03-16T19:24:50.532Z,2.35
2023-03-16T19:27:25.645Z,2.22
2023-03-16T19:29:54.678Z,2.13
2023-03-16T19:32:22.051Z,2.00
2023-03-16T19:34:49.442Z,2.08
2023-03-16T19:37:19.760Z,1.83
2023-03-16T19:39:47.182Z,2.05
2023-03-16T19:42:36.329Z,2.03
2023-03-16T19:45:05.117Z,2.05
2023-03-16T19:47:36.608Z,1.90
2023-03-16T19:50:14.773Z,1.92
2023-03-16T19:52:42.072Z,1.83
2023-03-16T19:55:14.420Z,2.50
2023-03-16T19:57:42.593Z,2.10
2023-03-16T20:00:19.582Z,2.10
2023-03-16T20:02:47.370Z,2.40
2023-03-16T20:05:29.024Z,2.22
2023-03-16T20:08:01.385Z,2.13
2023-03-16T20:10:32.589Z,1.92
2023-03-16T20:13:01.745Z,2.50
2023-03-16T20:15:33.240Z,2.65
2023-03-16T20:18:00.337Z,2.50
2023-03-16T20:20:34.371Z,2.65
2023-03-16T20:23:01.463Z,2.45
2023-03-16T20:25:33.293Z,2.30
2023-03-16T20:28:03.833Z,2.95
2023-03-16T20:30:31.803Z,3.30
2023-03-16T20:32:58.870Z,3.10
2023-03-16T20:35:31.069Z,2.88
2023-03-16T20:37:58.420Z,3.25
2023-03-16T20:40:26.147Z,2.90
2023-03-16T20:42:53.635Z,3.50
2023-03-16T20:45:27.820Z,3.15
2023-03-16T20:50:29.808Z,3.22
2023-03-16T20:52:57.491Z,3.50
2023-03-16T20:55:28.986Z,3.65
2023-03-16T20:57:57.490Z,3.50
2023-03-16T21:00:36.443Z,3.53
2023-03-16T21:03:16.876Z,3.83
2023-03-16T21:05:46.044Z,3.28
2023-03-16T21:08:14.318Z,3.10
2023-03-16T21:10:44.887Z,3.40
2023-03-16T21:13:21.289Z,3.30
2023-03-16T21:15:50.787Z,2.90
2023-03-16T21:18:21.551Z,3.50
2023-03-16T21:20:50.244Z,3.20
2023-03-16T21:23:23.314Z,3.17
2023-03-16T21:25:55.749Z,3.22
2023-03-16T21:28:27.774Z,3.10
2023-03-16T21:30:57.763Z,3.08
2023-03-16T21:33:35.765Z,3.17
2023-03-16T21:36:08.080Z,2.78
2023-03-16T21:38:35.380Z,3.20
2023-03-16T21:41:02.417Z,2.90
2023-03-16T21:43:29.581Z,2.90
2023-03-16T21:45:57.433Z,2.80
2023-03-16T21:48:38.058Z,3.10
2023-03-16T21:51:31.198Z,2.72
2023-03-16T21:53:59.070Z,2.70
2023-03-16T21:56:26.503Z,2.83
2023-03-16T21:58:54.712Z,2.80
2023-03-16T22:01:29.371Z,2.63
2023-03-16T22:04:13.732Z,2.70
2023-03-16T22:06:42.933Z,2.58
2023-03-16T22:09:18.614Z,2.95
2023-03-16T22:11:46.175Z,3.28
2023-03-16T22:14:13.224Z,2.65
2023-03-16T22:16:41.373Z,2.90
2023-03-16T22:19:14.614Z,2.63
2023-03-16T22:21:44.912Z,2.67
2023-03-16T22:24:22.085Z,2.70
2023-03-16T22:26:50.937Z,3.00
2023-03-16T22:29:30.381Z,2.70
2023-03-16T22:32:14.720Z,2.55
2023-03-16T22:34:45.182Z,2.95
2023-03-16T22:37:22.976Z,2.85
2023-03-16T22:39:51.285Z,2.70
2023-03-16T22:42:33.602Z,3.30
2023-03-16T22:45:02.162Z,2.78
2023-03-16T22:47:36.830Z,2.90
2023-03-16T22:50:04.183Z,2.58
2023-03-16T22:52:37.183Z,2.70
2023-03-16T22:55:07.048Z,2.63
2023-03-16T22:57:34.494Z,2.90
2023-03-16T23:00:03.913Z,2.75
2023-03-16T23:02:31.697Z,3.20
2023-03-16T23:04:58.787Z,2.78
2023-03-16T23:07:25.811Z,2.50
2023-03-16T23:09:52.838Z,2.17
2023-03-16T23:12:22.040Z,2.42
2023-03-16T23:14:49.375Z,2.45
2023-03-16T23:17:22.349Z,2.50
2023-03-16T23:19:49.527Z,2.33
2023-03-16T23:22:16.994Z,2.67
2023-03-16T23:24:44.116Z,2.38
2023-03-16T23:27:19.120Z,2.50
2023-03-16T23:29:46.641Z,2.78
2023-03-16T23:32:17.067Z,2.45
2023-03-16T23:34:44.388Z,2.38
2023-03-16T23:37:11.976Z,2.80
2023-03-16T23:39:39.825Z,2.40
2023-03-16T23:42:07.506Z,2.47
2023-03-16T23:44:35.190Z,2.63
2023-03-16T23:47:02.339Z,2.50
2023-03-16T23:49:36.814Z,2.33
2023-03-16T23:54:32.786Z,2.30
2023-03-16T23:56:59.748Z,2.50
2023-03-16T23:59:27.752Z,2.30
